Time;durP1;ratioP1;P1;durP2;ratioP2;P2;SDS_P1;SDS_P2;PMS_P1;PMS_P2;Temp;Humidity;BMP_temperature;BMP_pressure;BME280_temperature;BME280_humidity;BME280_pressure;Samples;Min_cycle;Max_cycle;Signal;HPM_P1;HPM_P2
2022/11/25 00:01:14;;;;;;;7.05;2.85;;;;;;;-148.88;100.00;76620.28;5013153;28;20026;-88
2022/11/25 00:03:40;;;;;;;12.43;3.17;;;;;;;-148.88;100.00;76620.28;5014272;28;20029;-88
2022/11/25 00:06:27;;;;;;;12.10;3.22;;;;;;;-148.88;100.00;76626.38;5014499;28;20153;-89
2022/11/25 00:08:55;;;;;;;11.70;3.42;;;;;;;-148.88;100.00;76638.56;5014415;28;20018;-88
2022/11/25 00:11:21;;;;;;;11.13;3.55;;;;;;;-148.88;100.00;76638.56;5014398;28;20026;-88
2022/11/25 00:13:46;;;;;;;10.23;3.60;;;;;;;-148.88;100.00;76636.53;5013824;28;20028;-88
2022/11/25 00:16:14;;;;;;;7.18;3.17;;;;;;;-148.88;100.00;76646.69;5013933;28;20112;-88
2022/11/25 00:18:43;;;;;;;11.93;3.90;;;;;;;-148.88;100.00;76638.56;5014140;28;20033;-88
2022/11/25 00:21:11;;;;;;;8.23;3.13;;;;;;;-148.88;100.00;76626.38;5013091;28;20120;-88
2022/11/25 00:23:37;;;;;;;11.57;3.67;;;;;;;-148.88;100.00;76616.22;5014242;28;20072;-88
2022/11/25 00:26:07;;;;;;;13.88;3.65;;;;;;;-148.88;100.00;76610.13;5013928;28;20029;-88
2022/11/25 00:28:33;;;;;;;19.13;3.50;;;;;;;-148.88;100.00;76601.97;5013652;28;20025;-88
2022/11/25 00:31:12;;;;;;;14.85;3.30;;;;;;;-148.88;100.00;76597.91;5012851;28;20416;-88
2022/11/25 00:33:37;;;;;;;9.23;3.30;;;;;;;-148.88;100.00;76608.09;5012645;28;20091;-88
2022/11/25 00:36:05;;;;;;;16.48;3.60;;;;;;;-148.88;100.00;76620.28;5013886;28;20506;-88
2022/11/25 00:38:31;;;;;;;9.30;2.80;;;;;;;-148.88;100.00;76622.31;5013360;28;20014;-89
2022/11/25 00:46:24;;;;;;;11.80;3.65;;;;;;;-148.88;100.00;76620.28;5013378;28;20092;-89
2022/11/25 00:48:49;;;;;;;12.23;3.55;;;;;;;-148.88;100.00;76595.88;5013195;28;20033;-88
2022/11/25 00:51:15;;;;;;;16.08;4.00;;;;;;;-148.88;100.00;76610.13;5013525;28;20022;-89
2022/11/25 00:53:40;;;;;;;9.35;3.85;;;;;;;-148.88;100.00;76614.19;5013493;28;20097;-88
2022/11/25 00:56:15;;;;;;;10.77;4.18;;;;;;;-148.88;100.00;76632.47;5011929;28;20496;-88
2022/11/25 00:58:42;;;;;;;8.70;3.92;;;;;;;-148.88;100.00;76638.56;5012350;28;20332;-88
2022/11/25 01:01:07;;;;;;;13.68;3.75;;;;;;;-148.88;100.00;76638.56;5013222;28;20125;-88
2022/11/25 01:03:33;;;;;;;11.80;3.22;;;;;;;-148.88;100.00;76644.66;5011724;28;20137;-88
2022/11/25 01:06:10;;;;;;;13.02;4.50;;;;;;;-148.88;100.00;76648.72;5012558;28;20399;-88
2022/11/25 01:08:37;;;;;;;9.98;4.13;;;;;;;-148.88;100.00;76650.75;5012854;28;20439;-88
2022/11/25 01:11:12;;;;;;;14.00;4.97;;;;;;;-148.88;100.00;76652.78;5013357;28;20033;-88
2022/11/25 01:13:38;;;;;;;12.35;4.05;;;;;;;-148.88;100.00;76654.81;5011661;28;20021;-89
2022/11/25 01:16:05;;;;;;;13.15;4.88;;;;;;;-148.88;100.00;76650.75;5012520;28;20550;-89
2022/11/25 01:18:31;;;;;;;13.60;4.68;;;;;;;-148.88;100.00;76658.88;5011923;28;20054;-88
2022/11/25 01:21:08;;;;;;;15.43;4.63;;;;;;;-148.88;100.00;76650.75;5012333;28;20018;-88
2022/11/25 01:23:35;;;;;;;14.02;4.22;;;;;;;-148.88;100.00;76652.78;5012448;28;20022;-88
2022/11/25 01:26:04;;;;;;;14.38;5.47;;;;;;;-148.88;100.00;76658.88;5011813;28;20017;-88
2022/11/25 01:28:30;;;;;;;14.45;4.10;;;;;;;-148.88;100.00;76654.81;5012254;28;20026;-88
2022/11/25 01:31:07;;;;;;;13.70;4.50;;;;;;;-148.88;100.00;76654.81;5012008;28;20045;-88
2022/11/25 01:33:34;;;;;;;15.48;4.28;;;;;;;-148.88;100.00;76652.78;5012970;28;20037;-88
2022/11/25 01:36:04;;;;;;;13.40;3.88;;;;;;;-148.88;100.00;76658.88;5013337;28;20044;-89
2022/11/25 01:38:34;;;;;;;15.18;4.75;;;;;;;-148.88;100.00;76648.72;5016013;28;20037;-88
2022/11/25 01:41:03;;;;;;;14.20;4.00;;;;;;;-148.88;100.00;76652.78;5016572;28;20029;-88
2022/11/25 01:43:29;;;;;;;11.55;4.38;;;;;;;-148.88;100.00;76646.69;5015791;28;20116;-89
2022/11/25 01:46:09;;;;;;;12.98;4.60;;;;;;;-148.88;100.00;76646.69;5017538;28;20025;-89
2022/11/25 01:48:41;;;;;;;11.98;4.28;;;;;;;-148.88;100.00;76646.69;5016850;28;20116;-88
2022/11/25 01:51:39;;;;;;;18.83;5.20;;;;;;;-148.88;100.00;76650.75;5016914;28;20029;-89
2022/11/25 01:54:11;;;;;;;8.82;4.10;;;;;;;-148.88;100.00;76654.81;5015125;28;20034;-88
2022/11/25 01:56:45;;;;;;;14.27;4.18;;;;;;;-148.88;100.00;76658.88;5016668;28;20022;-89
2022/11/25 01:59:12;;;;;;;11.77;4.15;;;;;;;-148.88;100.00;76654.81;5015597;28;20504;-88
2022/11/25 02:01:37;;;;;;;11.95;4.20;;;;;;;-148.88;100.00;76650.75;5015392;28;20133;-88
2022/11/25 02:04:04;;;;;;;11.88;4.07;;;;;;;-148.88;100.00;76646.69;5017403;28;20033;-88
2022/11/25 02:06:37;;;;;;;14.30;4.00;;;;;;;-148.88;100.00;76650.75;5016324;28;20030;-87
2022/11/25 02:09:07;;;;;;;18.50;4.17;;;;;;;-148.88;100.00;76646.69;5017788;28;20029;-89
2022/11/25 02:11:37;;;;;;;11.95;4.38;;;;;;;-148.88;100.00;76646.69;5017030;28;20125;-88
2022/11/25 02:14:02;;;;;;;9.95;4.25;;;;;;;-148.88;100.00;76650.75;5017105;28;20424;-88
2022/11/25 02:16:31;;;;;;;11.40;4.10;;;;;;;-148.88;100.00;76642.63;5018464;28;20064;-88
2022/11/25 02:18:57;;;;;;;17.33;4.03;;;;;;;-148.88;100.00;76646.69;5020539;28;20033;-89
2022/11/25 02:21:35;;;;;;;15.20;4.35;;;;;;;-148.88;100.00;76642.63;5017391;28;20029;-89
2022/11/25 02:24:15;;;;;;;13.98;4.43;;;;;;;-148.88;100.00;76638.56;5018192;28;20439;-89
2022/11/25 02:26:40;;;;;;;11.05;4.38;;;;;;;-148.88;100.00;76630.44;5017719;28;20034;-88
2022/11/25 02:29:06;;;;;;;17.92;4.38;;;;;;;-148.88;100.00;76618.25;5015801;28;20373;-89
2022/11/25 02:31:31;;;;;;;11.77;4.10;;;;;;;-148.88;100.00;76618.25;5016551;28;20042;-88
2022/11/25 02:33:56;;;;;;;16.75;4.13;;;;;;;-148.88;100.00;76618.25;5016502;28;20029;-88
2022/11/25 02:36:22;;;;;;;12.98;3.95;;;;;;;-148.88;100.00;76606.06;5014833;28;20030;-88
2022/11/25 02:38:52;;;;;;;15.25;4.05;;;;;;;-148.88;100.00;76595.88;5016811;28;20018;-88
2022/11/25 02:41:33;;;;;;;15.63;3.72;;;;;;;-148.88;100.00;76589.78;5014696;28;20472;-88
2022/11/25 02:43:59;;;;;;;11.23;4.15;;;;;;;-148.88;100.00;76589.78;5015114;28;20022;-88
2022/11/25 02:46:25;;;;;;;9.52;3.67;;;;;;;-148.88;100.00;76585.72;5015111;28;20080;-88
2022/11/25 02:48:52;;;;;;;10.80;3.97;;;;;;;-148.88;100.00;76589.78;5016293;28;20061;-88
2022/11/25 02:51:20;;;;;;;11.18;3.78;;;;;;;-148.88;100.00;76591.81;5014531;28;20026;-88
2022/11/25 02:53:45;;;;;;;11.85;4.07;;;;;;;-148.88;100.00;76591.81;5014247;28;20036;-88
2022/11/25 02:56:13;;;;;;;9.45;3.40;;;;;;;-148.88;100.00;76591.81;5016182;28;20038;-87
2022/11/25 02:58:42;;;;;;;16.98;3.92;;;;;;;-148.88;100.00;76593.84;5017145;28;20477;-84
2022/11/25 03:01:08;;;;;;;15.00;4.40;;;;;;;-148.88;100.00;76585.72;5017136;28;20109;-83
2022/11/25 03:03:35;;;;;;;10.93;3.60;;;;;;;-148.88;100.00;76583.69;5017733;28;20077;-83
2022/11/25 03:06:01;;;;;;;12.40;4.45;;;;;;;-148.88;100.00;76585.72;5017896;28;20022;-83
2022/11/25 03:08:27;;;;;;;14.18;3.42;;;;;;;-148.88;100.00;76579.63;5016654;28;20022;-82
2022/11/25 03:10:52;;;;;;;9.70;3.60;;;;;;;-148.88;100.00;76573.53;5015834;28;20036;-83
2022/11/25 03:13:17;;;;;;;8.07;3.10;;;;;;;-148.88;100.00;76563.38;5016947;28;20029;-83
2022/11/25 03:15:43;;;;;;;12.13;3.63;;;;;;;-148.88;100.00;76563.38;5015410;28;20021;-83
2022/11/25 03:18:08;;;;;;;12.48;3.47;;;;;;;-148.88;100.00;76561.34;5015641;28;20124;-82
2022/11/25 03:20:35;;;;;;;6.68;3.10;;;;;;;-148.88;100.00;76545.09;5016638;28;20022;-83
2022/11/25 03:23:01;;;;;;;9.95;3.38;;;;;;;-148.88;100.00;76545.09;5016079;28;20026;-84
2022/11/25 03:25:26;;;;;;;10.75;3.47;;;;;;;-148.88;100.00;76541.03;5016305;28;20030;-82
2022/11/25 03:27:51;;;;;;;10.68;3.33;;;;;;;-148.88;100.00;76545.09;5018199;28;20465;-82
2022/11/25 03:30:20;;;;;;;13.77;3.20;;;;;;;-148.88;100.00;76539.00;5018564;28;20140;-83
2022/11/25 03:32:46;;;;;;;10.45;2.90;;;;;;;-148.88;100.00;76534.94;5015903;28;20033;-82
2022/11/25 03:35:11;;;;;;;10.90;3.53;;;;;;;-148.88;100.00;76532.91;5016144;28;20037;-83
2022/11/25 03:37:38;;;;;;;10.27;3.03;;;;;;;-148.88;100.00;76532.91;5016896;28;20432;-83
2022/11/25 03:40:05;;;;;;;13.35;3.15;;;;;;;-148.88;100.00;76524.78;5018925;28;20022;-83
2022/11/25 03:42:31;;;;;;;12.23;2.70;;;;;;;-148.88;100.00;76524.78;5015730;28;20021;-83
2022/11/25 03:44:57;;;;;;;10.20;3.10;;;;;;;-148.88;100.00;76518.69;5017529;28;20036;-82
2022/11/25 03:47:23;;;;;;;10.70;3.22;;;;;;;-148.88;100.00;76514.63;5015774;28;20495;-83
2022/11/25 03:49:48;;;;;;;11.80;3.10;;;;;;;-148.88;100.00;76508.53;5017278;28;20076;-81
2022/11/25 03:52:13;;;;;;;13.05;3.40;;;;;;;-148.88;100.00;76512.59;5016057;28;20054;-83
2022/11/25 03:54:40;;;;;;;7.47;2.80;;;;;;;-148.88;100.00;76506.50;5016591;28;20167;-84
2022/11/25 03:57:05;;;;;;;7.43;2.47;;;;;;;-148.88;100.00;76506.50;5016017;28;20060;-83
2022/11/25 03:59:30;;;;;;;9.30;3.05;;;;;;;-148.88;100.00;76502.44;5015161;28;20017;-84
2022/11/25 04:01:56;;;;;;;7.53;3.10;;;;;;;-148.88;100.00;76500.41;5020664;28;20021;-84
2022/11/25 04:04:21;;;;;;;14.20;3.45;;;;;;;-148.88;100.00;76496.34;5019449;28;20053;-83
2022/11/25 04:06:46;;;;;;;11.40;3.25;;;;;;;-148.88;100.00;76492.28;5020885;28;20026;-83
2022/11/25 04:09:12;;;;;;;9.93;3.80;;;;;;;-148.88;100.00;76488.22;5021216;28;20029;-84
2022/11/25 04:14:21;;;;;;;13.30;2.92;;;;;;;-148.88;100.00;76474.00;5015342;28;20402;-83
2022/11/25 04:16:47;;;;;;;7.38;2.88;;;;;;;-148.88;100.00;76476.03;5016094;28;20072;-83
2022/11/25 04:19:12;;;;;;;12.68;3.75;;;;;;;-148.88;100.00;76467.91;5015192;28;20518;-84
2022/11/25 04:21:38;;;;;;;12.13;2.75;;;;;;;-148.88;100.00;76467.91;5015942;28;20087;-84
2022/11/25 04:24:03;;;;;;;10.40;2.50;;;;;;;-148.88;100.00;76465.88;5016840;28;20499;-83
2022/11/25 04:26:30;;;;;;;16.13;4.25;;;;;;;-148.88;100.00;76463.84;5015524;28;20048;-84
2022/11/25 04:28:57;;;;;;;10.20;3.38;;;;;;;-148.88;100.00;76476.03;5016926;28;20022;-84
2022/11/25 04:31:25;;;;;;;18.58;3.40;;;;;;;-148.88;100.00;76467.91;5016118;28;20030;-84
2022/11/25 04:33:50;;;;;;;9.75;2.58;;;;;;;-148.88;100.00;76467.91;5013788;28;20498;-84
2022/11/25 04:36:16;;;;;;;9.00;2.95;;;;;;;-148.88;100.00;76474.00;5014888;28;20104;-82
2022/11/25 04:38:41;;;;;;;9.32;2.72;;;;;;;-148.88;100.00;76471.97;5015550;28;20056;-83
2022/11/25 04:41:07;;;;;;;10.27;2.85;;;;;;;-148.88;100.00;76476.03;5013640;28;20057;-83
2022/11/25 04:43:32;;;;;;;10.70;2.72;;;;;;;-148.88;100.00;76467.91;5013430;28;20480;-83
2022/11/25 04:45:58;;;;;;;8.68;2.85;;;;;;;-148.88;100.00;76471.97;5014772;28;20373;-83
2022/11/25 04:48:24;;;;;;;11.63;3.03;;;;;;;-148.88;100.00;76476.03;5012804;28;20022;-83
2022/11/25 04:50:49;;;;;;;9.02;3.30;;;;;;;-148.88;100.00;76476.03;5013667;28;20022;-83
2022/11/25 04:53:15;;;;;;;12.48;3.30;;;;;;;-148.88;100.00;76478.06;5014566;28;20057;-83
2022/11/25 04:55:40;;;;;;;8.93;2.78;;;;;;;-148.88;100.00;76474.00;5014113;28;20031;-83
2022/11/25 04:58:06;;;;;;;10.15;2.42;;;;;;;-148.88;100.00;76474.00;5014592;28;20057;-89
2022/11/25 05:00:31;;;;;;;9.05;3.15;;;;;;;-148.88;100.00;76469.94;5014016;28;20399;-89
2022/11/25 05:02:56;;;;;;;13.00;2.85;;;;;;;-148.88;100.00;76469.94;5012468;28;20026;-88
2022/11/25 05:05:22;;;;;;;9.77;2.47;;;;;;;-148.88;100.00;76480.09;5013719;28;20018;-89
2022/11/25 05:07:47;;;;;;;11.15;3.00;;;;;;;-148.88;100.00;76480.09;5013880;28;20045;-89
2022/11/25 05:10:13;;;;;;;9.68;3.30;;;;;;;-148.88;100.00;76476.03;5013686;28;20080;-90
2022/11/25 05:12:42;;;;;;;9.40;2.67;;;;;;;-148.88;100.00;76467.91;5013825;28;20029;-89
2022/11/25 05:15:10;;;;;;;6.05;2.65;;;;;;;-148.88;100.00;76474.00;5016546;28;20053;-90
2022/11/25 05:17:36;;;;;;;9.10;2.60;;;;;;;-148.88;100.00;76467.91;5017500;28;20056;-89
2022/11/25 05:20:03;;;;;;;11.18;3.20;;;;;;;-148.88;100.00;76467.91;5018058;28;20472;-91
2022/11/25 05:22:30;;;;;;;12.43;3.22;;;;;;;-148.88;100.00;76467.91;5017627;28;20076;-90
2022/11/25 05:24:56;;;;;;;8.32;3.28;;;;;;;-148.88;100.00;76467.91;5017780;28;20064;-89
2022/11/25 05:27:23;;;;;;;14.32;3.63;;;;;;;-148.88;100.00;76465.88;5016085;28;20102;-90
2022/11/25 05:29:49;;;;;;;12.10;3.22;;;;;;;-148.88;100.00;76459.78;5017534;28;20474;-89
2022/11/25 05:32:14;;;;;;;12.77;3.72;;;;;;;-148.88;100.00;76463.84;5017863;28;20057;-89
2022/11/25 05:34:42;;;;;;;9.10;3.00;;;;;;;-148.88;100.00;76453.69;5017531;28;20034;-90
2022/11/25 05:37:11;;;;;;;10.80;3.65;;;;;;;-148.88;100.00;76447.59;5017645;28;20104;-89
2022/11/25 05:39:37;;;;;;;9.68;2.63;;;;;;;-148.88;100.00;76451.66;5017440;28;20483;-90
2022/11/25 05:42:02;;;;;;;12.27;2.88;;;;;;;-148.88;100.00;76451.66;5017375;28;20030;-86
2022/11/25 05:44:27;;;;;;;11.80;3.67;;;;;;;-148.88;100.00;76443.53;5017235;28;20022;-87
2022/11/25 05:46:53;;;;;;;14.70;3.28;;;;;;;-148.88;100.00;76451.66;5016977;28;20112;-86
2022/11/25 05:49:19;;;;;;;10.23;3.42;;;;;;;-148.88;100.00;76447.59;5017201;28;20110;-86
2022/11/25 05:51:45;;;;;;;11.15;3.50;;;;;;;-148.88;100.00;76441.50;5016013;28;20028;-86
2022/11/25 05:54:11;;;;;;;13.63;3.30;;;;;;;-148.88;100.00;76453.69;5017142;28;20038;-86
2022/11/25 05:56:39;;;;;;;9.52;3.47;;;;;;;-148.88;100.00;76447.59;5017823;28;20018;-86
2022/11/25 05:59:06;;;;;;;16.58;3.85;;;;;;;-148.88;100.00;76455.72;5017651;28;20495;-86
2022/11/25 06:01:31;;;;;;;16.73;3.75;;;;;;;-148.88;100.00;76457.75;5016475;28;20041;-85
2022/11/25 06:04:02;;;;;;;10.35;3.60;;;;;;;-148.88;100.00;76453.69;5016486;28;20022;-85
2022/11/25 06:06:27;;;;;;;8.80;3.78;;;;;;;-148.88;100.00;76451.66;5015520;28;20022;-87
2022/11/25 06:08:55;;;;;;;9.75;3.50;;;;;;;-148.88;100.00;76453.69;5017499;28;20044;-85
2022/11/25 06:11:24;;;;;;;11.80;3.33;;;;;;;-148.88;100.00;76453.69;5018142;28;20033;-86
2022/11/25 06:13:49;;;;;;;12.88;3.85;;;;;;;-148.88;100.00;76455.72;5016063;28;20026;-86
2022/11/25 06:16:17;;;;;;;12.13;3.28;;;;;;;-148.88;100.00;76453.69;5015402;28;20517;-86
2022/11/25 06:18:43;;;;;;;11.32;3.42;;;;;;;-148.88;100.00;76451.66;5016034;28;20057;-85
2022/11/25 06:21:09;;;;;;;11.02;4.70;;;;;;;-148.88;100.00;76447.59;5015544;28;20096;-85
2022/11/25 06:23:36;;;;;;;10.35;3.90;;;;;;;-148.88;100.00;76449.63;5015972;28;20021;-87
2022/11/25 06:26:06;;;;;;;10.68;4.05;;;;;;;-148.88;100.00;76443.53;5016675;28;20021;-86
2022/11/25 06:28:32;;;;;;;11.85;3.80;;;;;;;-148.88;100.00;76441.50;5015326;28;20091;-85
2022/11/25 06:31:10;;;;;;;12.50;3.97;;;;;;;-148.88;100.00;76441.50;5016944;28;20081;-86
2022/11/25 06:33:36;;;;;;;12.65;3.75;;;;;;;-148.88;100.00;76441.50;5015125;28;20511;-85
2022/11/25 06:36:05;;;;;;;11.45;4.53;;;;;;;-148.88;100.00;76443.53;5015123;28;20030;-86
2022/11/25 06:38:31;;;;;;;10.32;4.60;;;;;;;-148.88;100.00;76443.53;5015456;28;20105;-87
2022/11/25 06:41:01;;;;;;;14.52;4.15;;;;;;;-148.88;100.00;76435.41;5015345;28;20060;-85
2022/11/25 06:43:27;;;;;;;16.60;3.88;;;;;;;-148.88;100.00;76429.31;5015536;28;20022;-86
2022/11/25 06:45:59;;;;;;;13.20;5.35;;;;;;;-148.88;100.00;76425.25;5017577;28;20092;-85
2022/11/25 06:48:26;;;;;;;12.30;4.50;;;;;;;-148.88;100.00;76427.28;5018585;28;20033;-86
2022/11/25 06:50:56;;;;;;;11.95;4.55;;;;;;;-148.88;100.00;76425.25;5015006;28;20442;-86
2022/11/25 06:53:22;;;;;;;14.75;4.13;;;;;;;-148.88;100.00;76427.28;5015130;28;20489;-85
2022/11/25 06:55:48;;;;;;;20.55;5.70;;;;;;;-148.88;100.00;76429.31;5017840;28;20076;-85
2022/11/25 06:58:13;;;;;;;13.25;4.68;;;;;;;-148.88;100.00;76435.41;5018577;28;20025;-85
2022/11/25 07:00:38;;;;;;;13.52;4.60;;;;;;;-148.88;100.00;76431.34;5017517;28;20029;-83
2022/11/25 07:03:03;;;;;;;17.77;5.07;;;;;;;-148.88;100.00;76429.31;5015887;28;20395;-86
2022/11/25 07:05:29;;;;;;;11.93;4.40;;;;;;;-148.88;100.00;76433.38;5018131;28;20037;-85
2022/11/25 07:07:55;;;;;;;15.02;5.72;;;;;;;-148.88;100.00;76435.41;5015686;28;20135;-86
2022/11/25 07:10:21;;;;;;;14.77;4.80;;;;;;;-148.88;100.00;76431.34;5014687;28;20113;-85
2022/11/25 07:12:46;;;;;;;17.30;5.45;;;;;;;-148.88;100.00;76435.41;5014376;28;20408;-85
2022/11/25 07:15:11;;;;;;;15.15;5.60;;;;;;;-148.88;100.00;76435.41;5015665;28;20034;-85
2022/11/25 07:17:36;;;;;;;15.48;5.38;;;;;;;-148.88;100.00;76435.41;5015308;28;20034;-85
2022/11/25 07:20:02;;;;;;;18.67;6.07;;;;;;;-148.88;100.00;76437.44;5014791;28;20060;-85
2022/11/25 07:22:27;;;;;;;16.17;6.47;;;;;;;-148.88;100.00;76439.47;5015897;28;20021;-85
2022/11/25 07:24:52;;;;;;;19.50;6.25;;;;;;;-148.88;100.00;76435.41;5015389;28;20515;-83
2022/11/25 07:27:18;;;;;;;18.30;6.80;;;;;;;-148.88;100.00;76443.53;5014077;28;20026;-86
2022/11/25 07:29:43;;;;;;;12.20;5.38;;;;;;;-148.88;100.00;76443.53;5015085;28;20076;-85
2022/11/25 07:32:08;;;;;;;19.17;6.63;;;;;;;-148.88;100.00;76437.44;5013934;28;20037;-84
2022/11/25 07:34:34;;;;;;;16.33;5.97;;;;;;;-148.88;100.00;76443.53;5013350;28;20400;-84
2022/11/25 07:36:59;;;;;;;13.85;6.00;;;;;;;-148.88;100.00;76447.59;5015665;28;20042;-84
2022/11/25 07:39:24;;;;;;;19.42;6.18;;;;;;;-148.88;100.00;76449.63;5014770;28;20022;-84
2022/11/25 07:41:52;;;;;;;15.70;5.68;;;;;;;-148.88;100.00;76457.75;5015027;28;20579;-87
2022/11/25 07:44:18;;;;;;;14.23;5.53;;;;;;;-148.88;100.00;76467.91;5013605;28;20084;-85
2022/11/25 07:46:46;;;;;;;15.20;5.57;;;;;;;-148.88;100.00;76465.88;5014794;28;20022;-85
2022/11/25 07:49:14;;;;;;;15.52;5.68;;;;;;;-148.88;100.00;76459.78;5014928;28;20041;-86
2022/11/25 07:51:52;;;;;;;16.58;6.53;;;;;;;-148.88;100.00;76457.75;5015121;28;20388;-86
2022/11/25 07:54:17;;;;;;;17.10;5.38;;;;;;;-148.88;100.00;76459.78;5014570;28;20395;-86
2022/11/25 07:56:43;;;;;;;16.55;5.75;;;;;;;-148.88;100.00;76463.84;5014681;28;20061;-86
2022/11/25 07:59:12;;;;;;;12.68;5.20;;;;;;;-148.88;100.00;76469.94;5013073;28;20025;-86
2022/11/25 08:01:38;;;;;;;18.77;5.68;;;;;;;-148.88;100.00;76465.88;5014502;28;20484;-86
2022/11/25 08:04:03;;;;;;;16.27;5.00;;;;;;;-148.88;100.00;76463.84;5014155;28;20064;-86
2022/11/25 08:06:29;;;;;;;16.80;5.65;;;;;;;-148.88;100.00;76463.84;5014232;28;20032;-86
2022/11/25 08:08:56;;;;;;;17.15;6.10;;;;;;;-148.88;100.00;76455.72;5014387;28;20030;-85
2022/11/25 08:11:27;;;;;;;14.15;5.55;;;;;;;-148.88;100.00;76455.72;5014257;28;20033;-87
2022/11/25 08:13:53;;;;;;;14.77;5.57;;;;;;;-148.88;100.00;76453.69;5013257;28;20025;-87
2022/11/25 08:16:21;;;;;;;16.17;5.38;;;;;;;-148.88;100.00;76459.78;5014122;28;20365;-86
2022/11/25 08:18:47;;;;;;;10.95;4.60;;;;;;;-148.88;100.00;76453.69;5014363;28;20025;-87
2022/11/25 08:21:14;;;;;;;11.80;5.15;;;;;;;-148.88;100.00;76459.78;5014539;28;20034;-88
2022/11/25 08:23:42;;;;;;;12.70;4.60;;;;;;;-148.88;100.00;76451.66;5012887;28;20029;-86
2022/11/25 08:26:13;;;;;;;13.23;4.72;;;;;;;-148.88;100.00;76451.66;5013923;28;20033;-87
2022/11/25 08:28:40;;;;;;;10.57;5.00;;;;;;;-148.88;100.00;76451.66;5014075;28;20017;-87
2022/11/25 08:31:21;;;;;;;15.95;5.22;;;;;;;-148.88;100.00;76447.59;5013917;28;20029;-86
2022/11/25 08:33:48;;;;;;;15.98;5.10;;;;;;;-148.88;100.00;76447.59;5013830;28;20033;-88
2022/11/25 08:36:15;;;;;;;12.20;4.78;;;;;;;-148.88;100.00;76443.53;5013819;28;20041;-87
2022/11/25 08:38:41;;;;;;;13.77;4.78;;;;;;;-148.88;100.00;76447.59;5016301;28;20022;-87
2022/11/25 08:41:11;;;;;;;10.93;4.75;;;;;;;-148.88;100.00;76443.53;5015293;28;20129;-86
2022/11/25 08:43:37;;;;;;;11.82;5.03;;;;;;;-148.88;100.00;76431.34;5014643;28;20049;-85
2022/11/25 08:46:07;;;;;;;13.65;5.05;;;;;;;-148.88;100.00;76427.28;5012596;28;20032;-85
2022/11/25 08:48:32;;;;;;;23.00;9.23;;;;;;;-148.88;100.00;76417.09;5013812;28;20084;-86
2022/11/25 08:50:58;;;;;;;30.42;10.77;;;;;;;-148.88;100.00;76408.97;5012442;28;20069;-86
2022/11/25 08:53:23;;;;;;;24.95;9.52;;;;;;;-148.88;100.00;76394.75;5012737;28;20030;-87
2022/11/25 08:55:48;;;;;;;23.77;9.43;;;;;;;-148.88;100.00;76382.56;5012332;28;20034;-86
2022/11/25 08:58:14;;;;;;;14.60;5.15;;;;;;;-148.88;100.00;76374.44;5013530;28;20486;-85
2022/11/25 09:00:41;;;;;;;10.10;3.33;;;;;;;-148.88;100.00;76366.31;5013912;28;20022;-86
2022/11/25 09:03:06;;;;;;;11.48;3.85;;;;;;;-148.88;100.00;76366.31;5012247;28;20036;-86
2022/11/25 09:05:35;;;;;;;14.75;4.88;;;;;;;-148.88;100.00;76358.19;5012117;28;20022;-85
2022/11/25 09:08:04;;;;;;;13.63;3.97;;;;;;;-148.88;100.00;76346.00;5012581;28;20033;-85
2022/11/25 09:10:31;;;;;;;18.15;4.82;;;;;;;-148.88;100.00;76346.00;5012031;28;20480;-85
2022/11/25 09:12:56;;;;;;;16.25;4.07;;;;;;;-148.88;100.00;76341.94;5014148;28;20547;-85
2022/11/25 09:15:22;;;;;;;16.30;4.47;;;;;;;-148.88;100.00;76339.91;5014767;28;20022;-84
2022/11/25 09:17:47;;;;;;;16.10;4.35;;;;;;;-148.88;100.00;76335.84;5014151;28;20057;-84
2022/11/25 09:20:12;;;;;;;9.70;4.05;;;;;;;-148.88;100.00;76337.88;5013796;28;20029;-85
2022/11/25 09:22:38;;;;;;;14.13;4.38;;;;;;;-148.88;100.00;76339.91;5012994;28;20017;-85
2022/11/25 09:25:04;;;;;;;14.68;5.10;;;;;;;-148.88;100.00;76333.81;5013844;28;20057;-83
2022/11/25 09:27:30;;;;;;;15.73;4.47;;;;;;;-148.88;100.00;76335.84;5014291;28;20026;-84
2022/11/25 09:29:55;;;;;;;14.27;4.40;;;;;;;-148.88;100.00;76337.88;5015071;28;20595;-84
2022/11/25 09:32:21;;;;;;;12.75;4.95;;;;;;;-148.88;100.00;76341.94;5013892;28;20053;-86
2022/11/25 09:34:46;;;;;;;13.48;4.63;;;;;;;-148.88;100.00;76331.78;5013385;28;20105;-83
2022/11/25 09:37:11;;;;;;;12.90;4.53;;;;;;;-148.88;100.00;76333.81;5012511;28;20026;-85
2022/11/25 09:39:37;;;;;;;13.27;5.55;;;;;;;-148.88;100.00;76331.78;5012205;28;20036;-85
2022/11/25 09:48:46;;;;;;;12.90;5.18;;;;;;;-148.88;100.00;76329.75;5013357;28;20032;-86
2022/11/25 09:51:20;;;;;;;11.18;3.95;;;;;;;-148.88;100.00;76317.56;5002076;28;20045;-87
2022/11/25 09:53:53;;;;;;;12.43;4.28;;;;;;;-148.88;100.00;76313.50;5014081;28;20026;-85
2022/11/25 09:56:39;;;;;;;11.82;5.07;;;;;;;-148.88;100.00;76305.38;5012657;28;20032;-85
2022/11/25 09:59:19;;;;;;;15.93;5.75;;;;;;;-148.88;100.00;76301.31;5014964;28;20045;-85
2022/11/25 10:02:01;;;;;;;18.10;5.88;;;;;;;-148.88;100.00;76301.31;5017586;28;20068;-86
2022/11/25 10:04:33;;;;;;;16.77;5.90;;;;;;;-148.88;100.00;76301.31;5017664;28;20392;-84
2022/11/25 10:07:01;;;;;;;21.25;6.00;;;;;;;-148.88;100.00;76301.31;5017427;28;20502;-85
2022/11/25 10:09:31;;;;;;;17.52;6.88;;;;;;;-148.88;100.00;76305.38;5015441;28;20032;-86
2022/11/25 10:12:22;;;;;;;13.77;5.22;;;;;;;-148.88;100.00;76289.13;5016511;28;20036;-85
2022/11/25 10:14:56;;;;;;;15.88;5.50;;;;;;;-148.88;100.00;76293.19;5014371;28;20461;-85
2022/11/25 10:17:29;;;;;;;;;;;;;;;-148.88;100.00;76287.09;5016566;28;20030;-85
2022/11/25 10:20:13;;;;;;;11.82;4.57;;;;;;;-148.88;100.00;76289.13;5016389;28;19909;-85
2022/11/25 10:22:41;;;;;;;;;;;;;;;-148.88;100.00;76283.03;5016261;28;20099;-87
2022/11/25 10:25:26;;;;;;;11.40;4.80;;;;;;;-148.88;100.00;76285.06;5015803;28;19909;-88
2022/11/25 10:27:57;;;;;;;13.35;5.50;;;;;;;-148.88;100.00;76270.84;5015727;28;20041;-87
2022/11/25 10:30:26;;;;;;;11.40;6.18;;;;;;;-148.88;100.00;76244.44;5015910;28;20480;-86
2022/11/25 10:33:33;;;;;;;16.50;6.45;;;;;;;-148.88;100.00;76232.25;5016237;28;20038;-86
2022/11/25 10:36:16;;;;;;;14.52;6.40;;;;;;;-148.88;100.00;76203.81;5009971;28;20038;-86
2022/11/25 10:38:49;;;;;;;19.45;6.40;;;;;;;-148.88;100.00;76199.75;5014960;28;20033;-88
2022/11/25 10:41:18;;;;;;;19.92;6.93;;;;;;;-148.88;100.00;76203.81;5014737;28;20550;-85
2022/11/25 10:43:46;;;;;;;17.15;6.80;;;;;;;-148.88;100.00;76207.88;5015835;28;20117;-86
2022/11/25 10:46:30;;;;;;;16.10;6.45;;;;;;;-148.88;100.00;76189.59;5014891;28;20030;-85
2022/11/25 10:49:35;;;;;;;15.15;6.45;;;;;;;-148.88;100.00;76199.75;5016019;28;20476;-87
2022/11/25 10:52:00;;;;;;;13.70;5.93;;;;;;;-148.88;100.00;76195.69;5014966;28;20029;-87
2022/11/25 10:54:27;;;;;;;15.20;6.50;;;;;;;-148.88;100.00;76191.63;5015029;28;20022;-86
2022/11/25 10:56:58;;;;;;;14.30;5.75;;;;;;;-148.88;100.00;76191.63;5015591;28;20029;-86
2022/11/25 10:59:38;;;;;;;13.15;5.82;;;;;;;-148.88;100.00;76193.66;5015596;28;20076;-86
2022/11/25 11:02:25;;;;;;;16.88;5.78;;;;;;;-148.88;100.00;76187.56;5014169;28;20134;-87
2022/11/25 11:04:52;;;;;;;14.75;6.78;;;;;;;-148.88;100.00;76177.41;5013888;28;20021;-86
2022/11/25 11:07:17;;;;;;;15.32;6.32;;;;;;;-148.88;100.00;76183.50;5014061;28;20579;-86
2022/11/25 11:09:44;;;;;;;19.63;7.13;;;;;;;-148.88;100.00;76177.41;5015196;28;20113;-87
2022/11/25 11:12:18;;;;;;;12.48;6.22;;;;;;;-148.88;100.00;76179.44;5015728;28;20092;-85
2022/11/25 11:14:43;;;;;;;21.50;7.55;;;;;;;-148.88;100.00;76175.38;5015103;28;20025;-86
2022/11/25 11:17:28;;;;;;;14.70;7.43;;;;;;;-148.88;100.00;76171.31;5015454;28;20388;-87
2022/11/25 11:20:26;;;;;;;17.25;8.73;;;;;;;-148.88;100.00;76181.47;5013833;28;20029;-85
2022/11/25 11:23:00;;;;;;;15.95;7.68;;;;;;;-148.88;100.00;76179.44;5002586;28;20038;-87
2022/11/25 11:25:27;;;;;;;;;;;;;;;-148.88;100.00;76183.50;5014177;28;20188;-84